createdAt,value
2023-03-31T00:02:17.777Z,1.23
2023-03-31T00:07:23.077Z,1.17
2023-03-31T00:12:28.409Z,1.48
2023-03-31T00:17:32.056Z,1.40
2023-03-31T00:22:35.724Z,1.77
2023-03-31T00:27:43.211Z,1.75
2023-03-31T00:32:46.911Z,1.75
2023-03-31T00:42:58.235Z,1.70
2023-03-31T00:48:07.205Z,1.63
2023-03-31T00:53:13.652Z,1.80
2023-03-31T00:58:20.335Z,1.55
2023-03-31T01:03:24.247Z,1.90
2023-03-31T01:08:28.742Z,1.77
2023-03-31T01:13:35.775Z,1.65
2023-03-31T01:18:39.614Z,1.80
2023-03-31T01:24:20.581Z,1.40
2023-03-31T01:29:51.368Z,2.17
2023-03-31T01:35:21.394Z,1.90
2023-03-31T01:40:55.618Z,1.90
2023-03-31T01:46:03.873Z,2.10
2023-03-31T01:51:14.569Z,1.80
2023-03-31T01:56:24.609Z,1.80
2023-03-31T02:01:32.022Z,2.03
2023-03-31T02:06:38.573Z,2.10
2023-03-31T02:11:47.102Z,2.00
2023-03-31T02:16:55.700Z,2.15
2023-03-31T02:21:59.797Z,2.15
2023-03-31T02:27:08.201Z,2.05
2023-03-31T02:32:16.701Z,1.80
2023-03-31T02:37:20.459Z,2.03
2023-03-31T02:42:26.316Z,1.80
2023-03-31T02:47:30.174Z,2.22
2023-03-31T02:52:57.552Z,2.20
2023-03-31T02:58:27.757Z,2.20
2023-03-31T03:03:42.828Z,2.22
2023-03-31T03:09:02.621Z,2.75
2023-03-31T03:14:18.743Z,2.10
2023-03-31T03:19:24.560Z,2.47
2023-03-31T03:24:28.393Z,2.22
2023-03-31T03:29:36.739Z,2.28
2023-03-31T03:34:40.783Z,2.30
2023-03-31T03:39:44.472Z,2.15
2023-03-31T03:44:49.807Z,2.20
2023-03-31T03:49:53.462Z,2.43
2023-03-31T03:54:57.158Z,2.35
2023-03-31T04:00:02.416Z,2.63
2023-03-31T04:05:06.440Z,2.63
2023-03-31T04:10:10.880Z,2.30
2023-03-31T04:15:16.272Z,2.67
2023-03-31T04:20:20.066Z,2.70
2023-03-31T04:25:23.694Z,3.10
2023-03-31T04:30:29.219Z,2.22
2023-03-31T04:35:33.159Z,2.60
2023-03-31T04:40:36.863Z,2.40
2023-03-31T04:45:52.941Z,2.63
2023-03-31T04:51:03.264Z,2.67
2023-03-31T04:56:08.101Z,2.40
2023-03-31T05:01:13.907Z,2.13
2023-03-31T05:06:18.255Z,2.80
2023-03-31T05:11:21.945Z,2.90
2023-03-31T05:16:28.028Z,2.72
2023-03-31T05:21:31.777Z,2.83
2023-03-31T05:26:35.415Z,2.90
2023-03-31T05:31:40.694Z,2.55
2023-03-31T05:36:44.427Z,2.50
2023-03-31T05:41:48.070Z,2.40
2023-03-31T05:46:53.431Z,2.72
2023-03-31T05:51:57.061Z,2.93
2023-03-31T05:57:00.861Z,2.65
2023-03-31T06:02:06.298Z,2.80
2023-03-31T06:07:10.058Z,2.73
2023-03-31T06:12:14.402Z,2.50
2023-03-31T06:17:19.680Z,2.78
2023-03-31T06:22:23.343Z,2.83
2023-03-31T06:27:26.992Z,2.90
2023-03-31T06:32:32.322Z,2.85
2023-03-31T06:37:36.709Z,2.83
2023-03-31T06:42:40.343Z,2.60
2023-03-31T06:47:45.713Z,3.00
2023-03-31T06:52:49.398Z,2.50
2023-03-31T06:57:53.054Z,2.55
2023-03-31T07:02:58.506Z,2.50
2023-03-31T07:08:02.605Z,2.97
2023-03-31T07:13:06.369Z,2.88
2023-03-31T07:18:11.775Z,2.78
2023-03-31T07:23:15.511Z,3.33
2023-03-31T07:28:19.184Z,3.45
2023-03-31T07:33:24.492Z,2.90
2023-03-31T07:38:28.196Z,3.07
2023-03-31T07:43:31.867Z,2.72
2023-03-31T07:48:37.201Z,2.70
2023-03-31T07:53:40.850Z,3.07
2023-03-31T07:58:44.602Z,2.88
2023-03-31T08:03:50.532Z,2.90
2023-03-31T08:08:54.230Z,3.00
2023-03-31T08:13:58.065Z,2.70
2023-03-31T08:19:03.560Z,2.85
2023-03-31T08:24:07.433Z,3.00
2023-03-31T08:29:11.109Z,2.70
2023-03-31T08:34:16.416Z,2.83
2023-03-31T08:39:20.114Z,2.70
2023-03-31T08:44:31.880Z,2.60
2023-03-31T08:49:43.053Z,3.05
2023-03-31T08:54:50.488Z,2.80
2023-03-31T08:59:55.070Z,2.38
2023-03-31T09:05:29.224Z,2.65
2023-03-31T09:10:42.095Z,3.30
2023-03-31T09:15:49.665Z,2.70
2023-03-31T09:20:58.986Z,3.00
2023-03-31T09:26:05.125Z,2.65
2023-03-31T09:36:21.116Z,2.80
2023-03-31T09:41:24.803Z,2.72
2023-03-31T09:46:32.080Z,2.80
2023-03-31T09:51:42.353Z,2.70
2023-03-31T09:56:50.702Z,3.28
2023-03-31T10:01:57.987Z,2.58
2023-03-31T10:07:05.827Z,2.53
2023-03-31T10:12:16.644Z,2.83
2023-03-31T10:17:21.205Z,2.70
2023-03-31T10:22:33.018Z,2.50
2023-03-31T10:27:40.059Z,2.85
2023-03-31T10:32:46.314Z,2.83
2023-03-31T10:37:57.614Z,2.53
2023-03-31T10:43:04.802Z,2.83
2023-03-31T10:48:19.564Z,2.40
2023-03-31T10:53:24.891Z,2.60
2023-03-31T10:58:54.786Z,2.30
2023-03-31T11:04:36.911Z,2.45
2023-03-31T11:09:56.249Z,2.42
2023-03-31T11:15:11.612Z,2.65
2023-03-31T11:20:26.134Z,2.92
2023-03-31T11:25:38.827Z,2.58
2023-03-31T11:30:47.497Z,2.53
2023-03-31T11:36:08.126Z,2.80
2023-03-31T11:41:16.550Z,2.70
2023-03-31T11:46:24.391Z,2.95
2023-03-31T11:51:31.498Z,2.70
2023-03-31T11:56:40.978Z,2.60
2023-03-31T12:01:52.522Z,2.33
2023-03-31T12:07:02.685Z,2.50
2023-03-31T12:12:12.949Z,2.50
2023-03-31T12:17:19.670Z,3.10
2023-03-31T12:22:27.363Z,2.90
2023-03-31T12:27:39.222Z,2.80
2023-03-31T12:32:47.366Z,2.85
2023-03-31T12:38:14.430Z,2.53
2023-03-31T12:43:46.209Z,2.55
2023-03-31T12:49:10.772Z,2.55
2023-03-31T12:54:34.639Z,2.50
2023-03-31T12:59:41.022Z,2.55
2023-03-31T13:09:49.681Z,3.10
2023-03-31T13:14:56.278Z,2.92
2023-03-31T13:20:18.371Z,2.80
2023-03-31T13:25:50.084Z,3.10
2023-03-31T13:31:00.394Z,2.72
2023-03-31T13:36:36.414Z,3.15
2023-03-31T13:41:52.991Z,2.80
2023-03-31T13:47:29.460Z,2.78
2023-03-31T13:52:47.694Z,2.80
2023-03-31T13:58:33.652Z,3.00
2023-03-31T14:03:55.589Z,3.20
2023-03-31T14:09:05.912Z,2.65
2023-03-31T14:14:14.379Z,2.75
2023-03-31T14:19:35.072Z,2.63
2023-03-31T14:24:45.078Z,2.90
2023-03-31T14:29:58.927Z,3.20
2023-03-31T14:35:21.503Z,2.80
2023-03-31T14:40:26.542Z,2.72
2023-03-31T14:45:33.033Z,2.70
2023-03-31T14:55:54.858Z,2.67
2023-03-31T15:01:03.614Z,2.55
2023-03-31T15:06:10.130Z,2.58
2023-03-31T15:11:19.329Z,2.33
2023-03-31T15:16:31.910Z,3.10
2023-03-31T15:21:39.477Z,2.85
2023-03-31T15:26:47.113Z,2.63
2023-03-31T15:31:51.423Z,2.38
2023-03-31T15:36:58.301Z,2.30
2023-03-31T15:42:04.226Z,2.42
2023-03-31T15:47:14.527Z,2.67
2023-03-31T15:52:27.481Z,2.78
2023-03-31T15:57:36.444Z,2.97
2023-03-31T16:02:44.251Z,2.95
2023-03-31T16:07:50.061Z,3.63
2023-03-31T16:12:58.339Z,2.95
2023-03-31T16:18:06.285Z,3.00
2023-03-31T16:23:19.671Z,3.10
2023-03-31T16:28:26.530Z,2.75
2023-03-31T16:33:31.573Z,3.60
2023-03-31T16:38:36.906Z,3.45
2023-03-31T16:43:40.605Z,2.83
2023-03-31T16:48:44.260Z,3.17
2023-03-31T16:53:50.073Z,4.00
2023-03-31T16:58:53.730Z,4.10
2023-03-31T17:03:58.166Z,4.13
2023-03-31T17:09:03.511Z,4.03
2023-03-31T17:14:07.147Z,3.67
2023-03-31T17:19:10.765Z,3.83
2023-03-31T17:24:16.058Z,3.97
2023-03-31T17:29:19.789Z,4.00
2023-03-31T17:34:23.595Z,3.28
2023-03-31T17:39:29.018Z,3.42
2023-03-31T17:44:32.727Z,3.23
2023-03-31T17:49:36.404Z,2.90
2023-03-31T17:54:41.748Z,3.03
2023-03-31T17:59:45.423Z,2.77
2023-03-31T18:04:49.125Z,2.70
2023-03-31T18:09:54.530Z,2.58
2023-03-31T18:14:58.182Z,2.77
2023-03-31T18:20:01.851Z,2.90
2023-03-31T18:25:08.246Z,2.70
2023-03-31T18:30:13.053Z,3.30
2023-03-31T18:35:16.934Z,2.72
2023-03-31T18:40:22.288Z,3.05
2023-03-31T18:45:25.993Z,3.00
2023-03-31T18:50:29.636Z,3.40
2023-03-31T18:55:34.926Z,2.92
2023-03-31T19:00:38.654Z,2.77
2023-03-31T19:05:42.842Z,3.40
2023-03-31T19:10:48.140Z,3.40
2023-03-31T19:15:51.802Z,2.87
2023-03-31T19:20:55.475Z,2.72
2023-03-31T19:26:00.812Z,2.90
2023-03-31T19:31:05.821Z,3.07
2023-03-31T19:36:10.075Z,2.70
2023-03-31T19:41:15.382Z,3.00
2023-03-31T19:46:19.168Z,3.20
2023-03-31T19:51:22.874Z,3.20
2023-03-31T19:56:28.187Z,3.03
2023-03-31T20:01:31.916Z,2.77
2023-03-31T20:06:35.893Z,2.63
2023-03-31T20:11:41.289Z,2.78
2023-03-31T20:16:44.936Z,2.33
2023-03-31T20:21:53.308Z,3.05
2023-03-31T20:26:59.613Z,2.60
2023-03-31T20:32:03.273Z,2.50
2023-03-31T20:37:06.930Z,2.60
2023-03-31T20:42:12.218Z,2.75
2023-03-31T20:47:15.895Z,2.70
2023-03-31T20:52:19.561Z,2.30
2023-03-31T20:57:24.924Z,2.40
2023-03-31T21:02:28.620Z,2.67
2023-03-31T21:07:32.250Z,2.45
2023-03-31T21:12:38.467Z,2.47
2023-03-31T21:17:42.141Z,2.10
2023-03-31T21:22:45.836Z,2.05
2023-03-31T21:27:51.259Z,2.30
2023-03-31T21:32:54.953Z,2.03
2023-03-31T21:37:58.639Z,2.15
2023-03-31T21:43:03.943Z,2.58
2023-03-31T21:48:09.482Z,1.90
2023-03-31T21:53:13.487Z,2.22
2023-03-31T21:58:18.849Z,2.10
2023-03-31T22:03:27.775Z,2.20
2023-03-31T22:08:32.263Z,1.63
2023-03-31T22:13:37.832Z,1.60
2023-03-31T22:18:41.472Z,1.98
2023-03-31T22:23:45.358Z,1.42
2023-03-31T22:28:51.033Z,1.70
2023-03-31T22:33:54.852Z,1.40
2023-03-31T22:38:58.817Z,1.60
2023-03-31T22:44:04.246Z,1.60
2023-03-31T22:49:08.003Z,2.00
2023-03-31T22:54:14.346Z,1.75
2023-03-31T22:59:19.662Z,1.40
2023-03-31T23:04:23.544Z,1.70
2023-03-31T23:09:27.355Z,1.40
2023-03-31T23:14:32.673Z,1.55
2023-03-31T23:19:36.445Z,1.70
2023-03-31T23:24:40.292Z,1.73
2023-03-31T23:29:47.586Z,1.40
2023-03-31T23:34:51.226Z,1.50
2023-03-31T23:39:54.822Z,1.60
2023-03-31T23:45:00.180Z,1.80
2023-03-31T23:50:03.883Z,1.90
2023-03-31T23:55:07.866Z,1.52
